North Heidelberg, Pennsylvania
Current Conditions -  °F | °C
As of 10:54 AM on Saturday 25 Oct 2014 (Local Time) from KRDG Reporting Station
Clear Clear  
Wind Chill: 62°   Ceiling: Unl
Heat Index: 62°   Visibility: 10mi
Dew Point: 41°   Wind: 9mph
Humidity: 46%   Direction: 270°W
Pressure: 29.87"   Gusts: NA
Location:  40.4645°N, 76.1345°W
Report Text: KRDG 251454Z AUTO 27008KT 10SM CLR 17/05 A2987 RMK AO2 SLP119 T01670050 58014
Loading
Personal Weather Stations






























Interactive Weather Map
Tropical Storm Tracking
New forecast layout! Learn more

10-Day Weather Forecast

Advertisements
Track Severe Weather on mobile